NKS904 TJSJ-KMCO
Flight info
| Callsign | NKS904 |
|---|---|
| Flight time | N/A |
| Altitude | 32000 |
| Route | ACONY3 SAPPO Y280 OCTAL MUNGI1 |
| Aircraft | A321/M-SDE3FGHIRWY/LB1 |
Departure
| Time | N/A |
|---|---|
| Airport | Luis Munoz Marin International Airport (TJSJ) |
Arrival
| Time | 2026-04-21 00:21 |
|---|---|
| Airport | Orlando International Airport (KMCO) |
| Time | Latitude | Longitude | Altitude | Speed | Heading |
|---|---|---|---|---|---|
| 2026-04-20 23:16 | 24.79173 | -76.34889 | 32107 ft | 412 kts | 300° |
| 2026-04-20 23:17 | 24.81963 | -76.40419 | 32194 ft | 416 kts | 300° |
| 2026-04-20 23:17 | 24.83368 | -76.43206 | 32411 ft | 417 kts | 300° |
| 2026-04-20 23:17 | 24.84778 | -76.46000 | 32699 ft | 416 kts | 300° |
| 2026-04-20 23:18 | 24.86187 | -76.48794 | 33014 ft | 415 kts | 300° |
| 2026-04-20 23:18 | 24.87585 | -76.51569 | 33324 ft | 414 kts | 299° |
| 2026-04-20 23:18 | 24.88978 | -76.54339 | 33628 ft | 413 kts | 299° |
| 2026-04-20 23:18 | 24.90364 | -76.57097 | 33936 ft | 411 kts | 299° |
| 2026-04-20 23:19 | 24.91748 | -76.59852 | 34094 ft | 411 kts | 299° |
| 2026-04-20 23:19 | 24.93133 | -76.62604 | 34102 ft | 410 kts | 299° |
| 2026-04-20 23:19 | 24.95894 | -76.68097 | 34099 ft | 409 kts | 299° |
| 2026-04-20 23:20 | 24.98646 | -76.73591 | 34100 ft | 409 kts | 299° |
| 2026-04-20 23:20 | 25.01383 | -76.79054 | 34098 ft | 409 kts | 299° |
| 2026-04-20 23:21 | 25.04133 | -76.84551 | 34098 ft | 409 kts | 299° |
| 2026-04-20 23:21 | 25.06883 | -76.90044 | 34116 ft | 409 kts | 298° |
| 2026-04-20 23:22 | 25.09635 | -76.95553 | 34119 ft | 409 kts | 298° |
| 2026-04-20 23:22 | 25.12372 | -77.01056 | 34117 ft | 409 kts | 298° |
| 2026-04-20 23:23 | 25.15112 | -77.06557 | 34124 ft | 409 kts | 298° |
| 2026-04-20 23:23 | 25.17826 | -77.12018 | 34122 ft | 408 kts | 298° |
| 2026-04-20 23:24 | 25.20563 | -77.17526 | 34126 ft | 408 kts | 298° |
| 2026-04-20 23:24 | 25.23298 | -77.23035 | 34112 ft | 408 kts | 298° |
| 2026-04-20 23:25 | 25.26025 | -77.28533 | 34125 ft | 408 kts | 298° |
| 2026-04-20 23:25 | 25.28749 | -77.34047 | 34132 ft | 408 kts | 297° |
| 2026-04-20 23:26 | 25.30803 | -77.39836 | 34130 ft | 408 kts | 290° |
| 2026-04-20 23:26 | 25.32719 | -77.45732 | 34113 ft | 408 kts | 290° |
| 2026-04-20 23:27 | 25.34648 | -77.51625 | 34124 ft | 407 kts | 290° |
| 2026-04-20 23:27 | 25.36570 | -77.57523 | 34130 ft | 407 kts | 290° |
| 2026-04-20 23:28 | 25.38479 | -77.63418 | 34134 ft | 407 kts | 290° |
| 2026-04-20 23:28 | 25.40380 | -77.69304 | 34128 ft | 406 kts | 290° |
| 2026-04-20 23:29 | 25.42272 | -77.75177 | 34134 ft | 405 kts | 290° |
| 2026-04-20 23:29 | 25.44041 | -77.81091 | 34145 ft | 405 kts | 287° |
| 2026-04-20 23:30 | 25.45510 | -77.87059 | 34139 ft | 399 kts | 285° |
| 2026-04-20 23:30 | 25.46914 | -77.92988 | 34137 ft | 398 kts | 285° |
| 2026-04-20 23:31 | 25.48361 | -77.98887 | 34137 ft | 397 kts | 285° |
| 2026-04-20 23:31 | 25.49825 | -78.04730 | 34136 ft | 396 kts | 285° |
| 2026-04-20 23:32 | 25.51291 | -78.10596 | 34140 ft | 395 kts | 285° |
| 2026-04-20 23:32 | 25.52753 | -78.16458 | 34139 ft | 395 kts | 285° |
| 2026-04-20 23:33 | 25.54210 | -78.22319 | 34142 ft | 394 kts | 285° |
| 2026-04-20 23:33 | 25.55660 | -78.28173 | 34137 ft | 394 kts | 285° |
| 2026-04-20 23:34 | 25.57107 | -78.34022 | 34143 ft | 393 kts | 285° |
| 2026-04-20 23:34 | 25.58555 | -78.39864 | 34138 ft | 393 kts | 285° |
| 2026-04-20 23:35 | 25.60716 | -78.48624 | 34140 ft | 393 kts | 285° |
| 2026-04-20 23:36 | 25.62147 | -78.54460 | 34141 ft | 392 kts | 285° |
| 2026-04-20 23:36 | 25.63578 | -78.60291 | 34137 ft | 392 kts | 285° |
| 2026-04-20 23:37 | 25.64763 | -78.65127 | 34143 ft | 392 kts | 285° |
| 2026-04-20 23:37 | 25.66188 | -78.70947 | 34155 ft | 388 kts | 284° |
| 2026-04-20 23:38 | 25.67568 | -78.76609 | 34098 ft | 377 kts | 284° |
| 2026-04-20 23:38 | 25.68930 | -78.82217 | 34095 ft | 377 kts | 284° |
| 2026-04-20 23:39 | 25.70299 | -78.87839 | 34111 ft | 378 kts | 284° |
| 2026-04-20 23:39 | 25.71671 | -78.93472 | 34113 ft | 379 kts | 284° |
| 2026-04-20 23:40 | 25.73043 | -78.99114 | 34129 ft | 379 kts | 284° |
| 2026-04-20 23:40 | 25.74407 | -79.04769 | 34134 ft | 379 kts | 284° |
| 2026-04-20 23:41 | 25.75765 | -79.10417 | 34127 ft | 379 kts | 284° |
| 2026-04-20 23:41 | 25.77131 | -79.16069 | 34137 ft | 379 kts | 284° |
| 2026-04-20 23:42 | 25.78484 | -79.21678 | 34140 ft | 379 kts | 284° |
| 2026-04-20 23:42 | 25.79839 | -79.27328 | 34142 ft | 379 kts | 284° |
| 2026-04-20 23:43 | 25.81197 | -79.32974 | 34143 ft | 379 kts | 284° |
| 2026-04-20 23:43 | 25.82548 | -79.38617 | 34144 ft | 378 kts | 284° |
| 2026-04-20 23:44 | 25.83895 | -79.44266 | 34134 ft | 378 kts | 284° |
| 2026-04-20 23:44 | 25.85242 | -79.49919 | 34131 ft | 379 kts | 284° |
| 2026-04-20 23:45 | 25.86588 | -79.55587 | 34133 ft | 380 kts | 284° |
| 2026-04-20 23:45 | 25.87927 | -79.61225 | 34139 ft | 380 kts | 284° |
| 2026-04-20 23:46 | 25.89274 | -79.66904 | 34172 ft | 380 kts | 284° |
| 2026-04-20 23:46 | 25.90617 | -79.72576 | 34169 ft | 379 kts | 284° |
| 2026-04-20 23:47 | 25.91981 | -79.78233 | 34161 ft | 378 kts | 288° |
| 2026-04-20 23:47 | 25.94416 | -79.83413 | 34158 ft | 381 kts | 299° |
| 2026-04-20 23:48 | 25.97239 | -79.88405 | 34161 ft | 380 kts | 298° |
| 2026-04-20 23:48 | 25.99361 | -79.92176 | 33962 ft | 386 kts | 298° |
| 2026-04-20 23:48 | 26.00758 | -79.94672 | 33605 ft | 384 kts | 298° |
| 2026-04-20 23:49 | 26.02169 | -79.97194 | 33331 ft | 386 kts | 298° |
| 2026-04-20 23:49 | 26.03585 | -79.99733 | 33073 ft | 387 kts | 298° |
| 2026-04-20 23:49 | 26.05009 | -80.02293 | 32819 ft | 389 kts | 298° |
| 2026-04-20 23:49 | 26.06439 | -80.04863 | 32565 ft | 391 kts | 298° |
| 2026-04-20 23:50 | 26.07872 | -80.07438 | 32203 ft | 392 kts | 298° |
| 2026-04-20 23:50 | 26.09311 | -80.10014 | 31576 ft | 392 kts | 298° |
| 2026-04-20 23:50 | 26.10753 | -80.12588 | 30988 ft | 391 kts | 298° |
| 2026-04-20 23:50 | 26.12184 | -80.15145 | 30538 ft | 389 kts | 298° |
| 2026-04-20 23:51 | 26.13653 | -80.17678 | 30153 ft | 389 kts | 303° |
| 2026-04-20 23:51 | 26.15489 | -80.19905 | 29673 ft | 394 kts | 314° |
| 2026-04-20 23:51 | 26.17743 | -80.21677 | 29285 ft | 401 kts | 325° |
| 2026-04-20 23:51 | 26.20268 | -80.23035 | 28942 ft | 404 kts | 328° |
| 2026-04-20 23:52 | 26.22817 | -80.24354 | 28604 ft | 403 kts | 328° |
| 2026-04-20 23:52 | 26.25354 | -80.25668 | 28293 ft | 402 kts | 328° |
| 2026-04-20 23:52 | 26.27886 | -80.26979 | 27976 ft | 400 kts | 328° |
| 2026-04-20 23:52 | 26.30407 | -80.28290 | 27775 ft | 399 kts | 328° |
| 2026-04-20 23:53 | 26.32921 | -80.29604 | 27579 ft | 398 kts | 328° |
| 2026-04-20 23:53 | 26.35393 | -80.30896 | 27467 ft | 398 kts | 328° |
| 2026-04-20 23:53 | 26.37899 | -80.32208 | 27342 ft | 397 kts | 328° |
| 2026-04-20 23:53 | 26.40401 | -80.33513 | 27218 ft | 397 kts | 328° |
| 2026-04-20 23:54 | 26.42900 | -80.34816 | 27097 ft | 397 kts | 328° |
| 2026-04-20 23:54 | 26.45407 | -80.36122 | 26973 ft | 396 kts | 328° |
| 2026-04-20 23:54 | 26.47901 | -80.37421 | 26862 ft | 396 kts | 328° |
| 2026-04-20 23:54 | 26.50396 | -80.38722 | 26859 ft | 396 kts | 328° |
| 2026-04-20 23:55 | 26.52886 | -80.40026 | 26868 ft | 396 kts | 328° |
| 2026-04-20 23:55 | 26.55378 | -80.41332 | 26892 ft | 395 kts | 328° |
| 2026-04-20 23:55 | 26.57867 | -80.42638 | 26890 ft | 394 kts | 328° |
| 2026-04-20 23:55 | 26.60355 | -80.43941 | 26770 ft | 394 kts | 328° |
| 2026-04-20 23:56 | 26.62845 | -80.45218 | 26588 ft | 394 kts | 330° |
| 2026-04-20 23:56 | 26.65384 | -80.46382 | 26400 ft | 395 kts | 332° |
| 2026-04-20 23:56 | 26.67962 | -80.47457 | 26223 ft | 395 kts | 334° |
| 2026-04-20 23:56 | 26.70559 | -80.48483 | 26037 ft | 395 kts | 334° |
| 2026-04-20 23:57 | 26.73153 | -80.49491 | 25855 ft | 394 kts | 334° |
| 2026-04-20 23:57 | 26.75738 | -80.50508 | 25670 ft | 393 kts | 334° |
| 2026-04-20 23:57 | 26.78306 | -80.51540 | 25486 ft | 392 kts | 334° |
| 2026-04-20 23:57 | 26.80867 | -80.52591 | 25311 ft | 391 kts | 333° |
| 2026-04-20 23:58 | 26.83417 | -80.53652 | 25123 ft | 390 kts | 333° |
| 2026-04-20 23:58 | 26.85958 | -80.54713 | 24970 ft | 390 kts | 333° |
| 2026-04-20 23:58 | 26.88495 | -80.55772 | 24764 ft | 388 kts | 333° |
| 2026-04-20 23:58 | 26.91023 | -80.56823 | 24580 ft | 387 kts | 333° |
| 2026-04-20 23:59 | 26.93546 | -80.57871 | 24400 ft | 386 kts | 333° |
| 2026-04-20 23:59 | 26.96030 | -80.58899 | 24220 ft | 385 kts | 333° |
| 2026-04-20 23:59 | 26.98543 | -80.59938 | 24041 ft | 385 kts | 333° |
| 2026-04-20 23:59 | 27.01060 | -80.60983 | 23859 ft | 384 kts | 334° |
| 2026-04-21 00:00 | 27.03564 | -80.62021 | 23671 ft | 384 kts | 334° |
| 2026-04-21 00:00 | 27.06070 | -80.63061 | 23481 ft | 382 kts | 334° |
| 2026-04-21 00:00 | 27.08559 | -80.64100 | 23309 ft | 381 kts | 334° |
| 2026-04-21 00:00 | 27.11040 | -80.65137 | 23121 ft | 380 kts | 334° |
| 2026-04-21 00:01 | 27.13509 | -80.66171 | 22936 ft | 378 kts | 334° |
| 2026-04-21 00:01 | 27.15974 | -80.67204 | 22750 ft | 377 kts | 334° |
| 2026-04-21 00:01 | 27.18426 | -80.68231 | 22563 ft | 375 kts | 333° |
| 2026-04-21 00:01 | 27.20860 | -80.69250 | 22389 ft | 373 kts | 333° |
| 2026-04-21 00:02 | 27.23253 | -80.70254 | 22221 ft | 371 kts | 333° |
| 2026-04-21 00:02 | 27.25670 | -80.71264 | 22021 ft | 370 kts | 334° |
| 2026-04-21 00:02 | 27.28084 | -80.72273 | 21848 ft | 369 kts | 334° |
| 2026-04-21 00:02 | 27.30487 | -80.73281 | 21669 ft | 368 kts | 334° |
| 2026-04-21 00:03 | 27.32880 | -80.74288 | 21489 ft | 367 kts | 334° |
| 2026-04-21 00:03 | 27.35271 | -80.75296 | 21308 ft | 366 kts | 334° |
| 2026-04-21 00:03 | 27.37648 | -80.76301 | 21119 ft | 365 kts | 334° |
| 2026-04-21 00:03 | 27.40028 | -80.77320 | 20560 ft | 367 kts | 334° |
| 2026-04-21 00:04 | 27.42396 | -80.78344 | 20134 ft | 362 kts | 334° |
| 2026-04-21 00:04 | 27.44736 | -80.79361 | 19589 ft | 358 kts | 334° |
| 2026-04-21 00:04 | 27.47043 | -80.80364 | 19114 ft | 353 kts | 334° |
| 2026-04-21 00:04 | 27.49325 | -80.81357 | 18643 ft | 350 kts | 334° |
| 2026-04-21 00:05 | 27.51591 | -80.82341 | 18132 ft | 348 kts | 334° |
| 2026-04-21 00:05 | 27.53841 | -80.83317 | 17523 ft | 345 kts | 335° |
| 2026-04-21 00:05 | 27.56072 | -80.84286 | 16972 ft | 342 kts | 335° |
| 2026-04-21 00:05 | 27.58261 | -80.85303 | 16518 ft | 339 kts | 333° |
| 2026-04-21 00:06 | 27.60401 | -80.86394 | 16080 ft | 336 kts | 332° |
| 2026-04-21 00:06 | 27.62515 | -80.87523 | 15610 ft | 334 kts | 332° |
| 2026-04-21 00:06 | 27.64604 | -80.88653 | 15167 ft | 332 kts | 332° |
| 2026-04-21 00:06 | 27.66655 | -80.89758 | 14728 ft | 330 kts | 333° |
| 2026-04-21 00:07 | 27.68723 | -80.90863 | 14284 ft | 328 kts | 333° |
| 2026-04-21 00:07 | 27.70782 | -80.91956 | 13833 ft | 326 kts | 334° |
| 2026-04-21 00:07 | 27.72836 | -80.93038 | 13381 ft | 324 kts | 334° |
| 2026-04-21 00:07 | 27.74877 | -80.94108 | 12938 ft | 322 kts | 334° |
| 2026-04-21 00:08 | 27.76905 | -80.95170 | 12505 ft | 321 kts | 334° |
| 2026-04-21 00:08 | 27.78931 | -80.96229 | 12082 ft | 319 kts | 334° |
| 2026-04-21 00:08 | 27.80936 | -80.97280 | 11660 ft | 316 kts | 334° |
| 2026-04-21 00:08 | 27.82929 | -80.98330 | 11231 ft | 315 kts | 334° |
| 2026-04-21 00:09 | 27.84911 | -80.99376 | 10808 ft | 314 kts | 335° |
| 2026-04-21 00:09 | 27.86881 | -81.00412 | 10403 ft | 311 kts | 335° |
| 2026-04-21 00:09 | 27.88792 | -81.01417 | 10268 ft | 295 kts | 335° |
| 2026-04-21 00:09 | 27.90613 | -81.02374 | 10111 ft | 283 kts | 335° |
| 2026-04-21 00:10 | 27.92372 | -81.03299 | 9874 ft | 275 kts | 335° |
| 2026-04-21 00:10 | 27.94102 | -81.04187 | 9724 ft | 273 kts | 337° |
| 2026-04-21 00:10 | 27.95882 | -81.04990 | 9421 ft | 277 kts | 339° |
| 2026-04-21 00:10 | 27.97661 | -81.05735 | 9049 ft | 276 kts | 340° |
| 2026-04-21 00:11 | 27.99458 | -81.06470 | 8640 ft | 275 kts | 340° |
| 2026-04-21 00:11 | 28.01252 | -81.07205 | 8194 ft | 273 kts | 341° |
| 2026-04-21 00:11 | 28.03034 | -81.07944 | 7769 ft | 272 kts | 341° |
| 2026-04-21 00:11 | 28.04805 | -81.08685 | 7332 ft | 271 kts | 341° |
| 2026-04-21 00:12 | 28.06571 | -81.09427 | 6902 ft | 270 kts | 340° |
| 2026-04-21 00:12 | 28.08325 | -81.10176 | 6467 ft | 269 kts | 338° |
| 2026-04-21 00:12 | 28.09870 | -81.11358 | 6017 ft | 271 kts | 315° |
| 2026-04-21 00:12 | 28.10923 | -81.13117 | 5696 ft | 267 kts | 303° |
| 2026-04-21 00:13 | 28.11845 | -81.14908 | 5456 ft | 259 kts | 304° |
| 2026-04-21 00:13 | 28.12793 | -81.16604 | 5211 ft | 250 kts | 309° |
| 2026-04-21 00:13 | 28.13752 | -81.18214 | 4967 ft | 244 kts | 305° |
| 2026-04-21 00:13 | 28.14613 | -81.19860 | 4720 ft | 242 kts | 303° |
| 2026-04-21 00:14 | 28.15431 | -81.21487 | 4496 ft | 233 kts | 304° |
| 2026-04-21 00:14 | 28.16216 | -81.23066 | 4238 ft | 227 kts | 304° |
| 2026-04-21 00:14 | 28.16991 | -81.24620 | 4048 ft | 226 kts | 304° |
| 2026-04-21 00:14 | 28.17764 | -81.26178 | 3993 ft | 227 kts | 304° |
| 2026-04-21 00:15 | 28.18546 | -81.27734 | 4002 ft | 228 kts | 304° |
| 2026-04-21 00:15 | 28.19336 | -81.29292 | 3999 ft | 229 kts | 305° |
| 2026-04-21 00:15 | 28.20203 | -81.30794 | 3997 ft | 225 kts | 317° |
| 2026-04-21 00:15 | 28.21400 | -81.31870 | 4013 ft | 217 kts | 337° |
| 2026-04-21 00:16 | 28.22801 | -81.32426 | 3770 ft | 208 kts | 355° |
| 2026-04-21 00:16 | 28.24176 | -81.32497 | 3481 ft | 194 kts | 5° |
| 2026-04-21 00:16 | 28.25491 | -81.32510 | 3199 ft | 185 kts | 5° |
| 2026-04-21 00:16 | 28.26745 | -81.32526 | 2946 ft | 175 kts | 5° |
| 2026-04-21 00:17 | 28.27950 | -81.32540 | 2731 ft | 173 kts | 5° |
| 2026-04-21 00:17 | 28.29148 | -81.32552 | 2498 ft | 172 kts | 5° |
| 2026-04-21 00:17 | 28.30341 | -81.32562 | 2278 ft | 171 kts | 5° |
| 2026-04-21 00:17 | 28.31508 | -81.32574 | 2057 ft | 159 kts | 5° |
| 2026-04-21 00:18 | 28.32558 | -81.32591 | 1873 ft | 146 kts | 6° |
| 2026-04-21 00:18 | 28.33558 | -81.32602 | 1684 ft | 142 kts | 6° |
| 2026-04-21 00:18 | 28.34545 | -81.32610 | 1464 ft | 140 kts | 6° |
| 2026-04-21 00:18 | 28.35516 | -81.32617 | 1291 ft | 139 kts | 5° |
| 2026-04-21 00:19 | 28.36474 | -81.32621 | 1079 ft | 138 kts | 6° |
| 2026-04-21 00:19 | 28.37444 | -81.32632 | 915 ft | 138 kts | 3° |
| 2026-04-21 00:19 | 28.38409 | -81.32641 | 766 ft | 141 kts | 4° |
| 2026-04-21 00:19 | 28.39394 | -81.32644 | 572 ft | 144 kts | 4° |
| 2026-04-21 00:20 | 28.40371 | -81.32648 | 384 ft | 141 kts | 3° |
| 2026-04-21 00:20 | 28.41337 | -81.32664 | 184 ft | 139 kts | 3° |
| 2026-04-21 00:20 | 28.42269 | -81.32674 | 99 ft | 122 kts | 1° |
| 2026-04-21 00:20 | 28.42948 | -81.32678 | 102 ft | 77 kts | 359° |
| 2026-04-21 00:21 | 28.43382 | -81.32682 | 101 ft | 51 kts | 1° |
| 2026-04-21 00:21 | 28.43653 | -81.32655 | 101 ft | 21 kts | 20° |
| 2026-04-21 00:21 | 28.43744 | -81.32547 | 100 ft | 19 kts | 59° |
| 2026-04-21 00:21 | 28.43805 | -81.32432 | 100 ft | 16 kts | 59° |
| 2026-04-21 00:22 | 28.43859 | -81.32330 | 100 ft | 15 kts | 58° |
| 2026-04-21 00:22 | 28.43917 | -81.32238 | 100 ft | 14 kts | 59° |
| 2026-04-21 00:22 | 28.43963 | -81.32135 | 100 ft | 15 kts | 62° |
| 2026-04-21 00:22 | 28.43988 | -81.32015 | 100 ft | 15 kts | 97° |
| 2026-04-21 00:23 | 28.43942 | -81.31906 | 98 ft | 15 kts | 123° |
| 2026-04-21 00:23 | 28.43867 | -81.31849 | 101 ft | 12 kts | 170° |
| 2026-04-21 00:23 | 28.43789 | -81.31843 | 100 ft | 12 kts | 176° |
| 2026-04-21 00:23 | 28.43708 | -81.31844 | 98 ft | 11 kts | 182° |
| 2026-04-21 00:24 | 28.43635 | -81.31846 | 99 ft | 10 kts | 179° |
| 2026-04-21 00:24 | 28.43563 | -81.31845 | 99 ft | 10 kts | 178° |
| 2026-04-21 00:24 | 28.43481 | -81.31843 | 98 ft | 14 kts | 180° |
| 2026-04-21 00:24 | 28.43387 | -81.31846 | 100 ft | 15 kts | 182° |
| 2026-04-21 00:25 | 28.43318 | -81.31846 | 99 ft | 14 kts | 179° |
| 2026-04-21 00:25 | 28.43253 | -81.31831 | 98 ft | 8 kts | 140° |
| 2026-04-21 00:25 | 28.43254 | -81.31779 | 99 ft | 6 kts | 60° |
| 2026-04-21 00:25 | 28.43275 | -81.31735 | 98 ft | 6 kts | 67° |
| 2026-04-21 00:26 | 28.43283 | -81.31674 | 95 ft | 10 kts | 93° |
| 2026-04-21 00:26 | 28.43275 | -81.31603 | 94 ft | 8 kts | 82° |
| 2026-04-21 00:26 | 28.43303 | -81.31577 | 98 ft | 4 kts | 17° |
| 2026-04-21 00:26 | 28.43323 | -81.31571 | 94 ft | 2 kts | 15° |
| 2026-04-21 00:27 | 28.43329 | -81.31569 | 94 ft | 0 kts | 15° |
| 2026-04-21 00:27 | 28.43331 | -81.31568 | 94 ft | 0 kts | 15° |